sensor_id;sensor_type;location;lat;lon;timestamp;pressure;altitude;pressure_sealevel;temperature;humidity
33727;BME280;20057;44.714;10.196;2022-07-23T05:21:08;98345.94;;;31.54;38.57
33727;BME280;20057;44.714;10.196;2022-07-23T05:23:36;98348.53;;;31.81;37.68
33727;BME280;20057;44.714;10.196;2022-07-23T05:26:03;98349.97;;;31.99;36.82
33727;BME280;20057;44.714;10.196;2022-07-23T05:28:32;98341.19;;;31.80;38.54
33727;BME280;20057;44.714;10.196;2022-07-23T05:30:59;98343.50;;;31.88;40.50
33727;BME280;20057;44.714;10.196;2022-07-23T05:33:27;98343.97;;;31.92;34.69
33727;BME280;20057;44.714;10.196;2022-07-23T05:35:59;98335.16;;;31.54;37.03
33727;BME280;20057;44.714;10.196;2022-07-23T05:38:29;98339.06;;;31.27;39.46
33727;BME280;20057;44.714;10.196;2022-07-23T05:40:59;98335.63;;;30.93;41.18
33727;BME280;20057;44.714;10.196;2022-07-23T05:43:27;98340.75;;;30.65;37.65
33727;BME280;20057;44.714;10.196;2022-07-23T05:45:56;98331.94;;;30.46;44.63
33727;BME280;20057;44.714;10.196;2022-07-23T05:48:24;98339.56;;;30.33;41.96
33727;BME280;20057;44.714;10.196;2022-07-23T05:51:24;98335.94;;;30.27;40.58
33727;BME280;20057;44.714;10.196;2022-07-23T05:53:52;98346.47;;;30.19;42.71
33727;BME280;20057;44.714;10.196;2022-07-23T05:56:21;98346.94;;;30.39;41.37
33727;BME280;20057;44.714;10.196;2022-07-23T05:58:48;98343.50;;;30.46;40.64
33727;BME280;20057;44.714;10.196;2022-07-23T06:01:17;98341.31;;;30.64;40.58
33727;BME280;20057;44.714;10.196;2022-07-23T06:03:52;98343.44;;;30.52;38.83
33727;BME280;20057;44.714;10.196;2022-07-23T06:06:20;98346.84;;;30.62;37.99
33727;BME280;20057;44.714;10.196;2022-07-23T06:08:48;98341.78;;;30.68;39.39
33727;BME280;20057;44.714;10.196;2022-07-23T06:11:15;98346.22;;;30.74;40.18
33727;BME280;20057;44.714;10.196;2022-07-23T06:13:43;98359.13;;;30.68;45.17
33727;BME280;20057;44.714;10.196;2022-07-23T06:16:10;98354.19;;;30.57;44.80
33727;BME280;20057;44.714;10.196;2022-07-23T06:18:38;98357.94;;;30.41;41.99
33727;BME280;20057;44.714;10.196;2022-07-23T06:21:05;98351.91;;;30.33;44.21
33727;BME280;20057;44.714;10.196;2022-07-23T06:23:43;98353.03;;;30.19;44.74
33727;BME280;20057;44.714;10.196;2022-07-23T06:26:10;98354.03;;;30.27;42.47
33727;BME280;20057;44.714;10.196;2022-07-23T06:28:37;98363.22;;;30.26;41.34
33727;BME280;20057;44.714;10.196;2022-07-23T06:31:05;98367.13;;;30.39;41.84
33727;BME280;20057;44.714;10.196;2022-07-23T06:33:32;98367.13;;;30.39;45.04
33727;BME280;20057;44.714;10.196;2022-07-23T06:36:00;98375.53;;;30.26;47.78
33727;BME280;20057;44.714;10.196;2022-07-23T06:38:27;98371.03;;;30.47;47.55
33727;BME280;20057;44.714;10.196;2022-07-23T06:40:56;98373.63;;;30.51;44.12
33727;BME280;20057;44.714;10.196;2022-07-23T06:43:23;98373.97;;;30.25;45.85
33727;BME280;20057;44.714;10.196;2022-07-23T06:45:54;98375.53;;;30.37;45.53
33727;BME280;20057;44.714;10.196;2022-07-23T06:48:21;98382.84;;;30.33;45.49
33727;BME280;20057;44.714;10.196;2022-07-23T06:50:49;98386.53;;;30.28;43.88
33727;BME280;20057;44.714;10.196;2022-07-23T06:53:23;98385.78;;;30.27;44.58
33727;BME280;20057;44.714;10.196;2022-07-23T06:55:50;98393.34;;;30.30;42.35
33727;BME280;20057;44.714;10.196;2022-07-23T06:58:18;98389.69;;;30.30;42.26
33727;BME280;20057;44.714;10.196;2022-07-23T07:00:46;98391.78;;;30.35;42.48
33727;BME280;20057;44.714;10.196;2022-07-23T07:03:13;98396.00;;;30.39;42.75
33727;BME280;20057;44.714;10.196;2022-07-23T07:05:41;98405.16;;;30.43;42.25
33727;BME280;20057;44.714;10.196;2022-07-23T07:08:08;98404.03;;;30.63;41.25
33727;BME280;20057;44.714;10.196;2022-07-23T07:10:35;98403.69;;;30.72;42.02
33727;BME280;20057;44.714;10.196;2022-07-23T07:13:03;98407.84;;;30.88;41.63
33727;BME280;20057;44.714;10.196;2022-07-23T07:15:30;98416.19;;;31.02;42.84
33727;BME280;20057;44.714;10.196;2022-07-23T07:17:57;98408.75;;;31.12;42.12
33727;BME280;20057;44.714;10.196;2022-07-23T07:20:24;98408.88;;;31.31;41.96
33727;BME280;20057;44.714;10.196;2022-07-23T07:22:54;98414.31;;;31.46;42.71
33727;BME280;20057;44.714;10.196;2022-07-23T07:25:21;98418.22;;;31.54;41.02
33727;BME280;20057;44.714;10.196;2022-07-23T07:27:48;98420.13;;;31.75;42.11
33727;BME280;20057;44.714;10.196;2022-07-23T07:30:16;98417.28;;;31.70;39.57
33727;BME280;20057;44.714;10.196;2022-07-23T07:32:43;98414.41;;;31.94;40.81
33727;BME280;20057;44.714;10.196;2022-07-23T07:35:26;98424.06;;;32.08;36.58
33727;BME280;20057;44.714;10.196;2022-07-23T07:37:53;98423.41;;;32.20;36.75
33727;BME280;20057;44.714;10.196;2022-07-23T07:40:20;98425.13;;;32.29;34.40
33727;BME280;20057;44.714;10.196;2022-07-23T07:42:49;98419.53;;;32.36;33.48
33727;BME280;20057;44.714;10.196;2022-07-23T07:45:17;98427.53;;;32.49;33.79
33727;BME280;20057;44.714;10.196;2022-07-23T07:47:44;98424.78;;;32.62;34.23
33727;BME280;20057;44.714;10.196;2022-07-23T07:50:11;98418.38;;;32.69;34.53
33727;BME280;20057;44.714;10.196;2022-07-23T07:52:39;98419.31;;;32.77;33.63
33727;BME280;20057;44.714;10.196;2022-07-23T07:55:07;98410.72;;;32.90;35.86
33727;BME280;20057;44.714;10.196;2022-07-23T07:57:34;98409.25;;;33.02;33.41
33727;BME280;20057;44.714;10.196;2022-07-23T08:00:02;98413.47;;;33.20;33.30
33727;BME280;20057;44.714;10.196;2022-07-23T08:05:08;98419.59;;;33.48;33.74
33727;BME280;20057;44.714;10.196;2022-07-23T08:07:35;98424.72;;;33.61;31.97
33727;BME280;20057;44.714;10.196;2022-07-23T08:10:04;98426.09;;;33.73;32.38
33727;BME280;20057;44.714;10.196;2022-07-23T08:12:38;98419.63;;;33.80;34.44
33727;BME280;20057;44.714;10.196;2022-07-23T08:15:06;98429.03;;;33.86;31.71
33727;BME280;20057;44.714;10.196;2022-07-23T08:17:36;98425.47;;;33.93;32.38
33727;BME280;20057;44.714;10.196;2022-07-23T08:20:04;98429.59;;;33.98;31.79
33727;BME280;20057;44.714;10.196;2022-07-23T08:25:33;98432.84;;;33.94;30.42
33727;BME280;20057;44.714;10.196;2022-07-23T08:28:01;98429.84;;;34.00;31.61
33727;BME280;20057;44.714;10.196;2022-07-23T08:30:29;98425.28;;;34.04;32.17
33727;BME280;20057;44.714;10.196;2022-07-23T08:35:28;98442.44;;;33.89;31.13
33727;BME280;20057;44.714;10.196;2022-07-23T08:37:56;98432.81;;;33.81;33.23
33727;BME280;20057;44.714;10.196;2022-07-23T08:40:28;98433.03;;;33.83;32.66
33727;BME280;20057;44.714;10.196;2022-07-23T08:42:55;98436.03;;;33.78;40.13
33727;BME280;20057;44.714;10.196;2022-07-23T08:45:24;98430.78;;;33.76;39.19
33727;BME280;20057;44.714;10.196;2022-07-23T08:47:55;98426.50;;;33.64;43.27
33727;BME280;20057;44.714;10.196;2022-07-23T08:50:23;98418.25;;;33.68;42.59
33727;BME280;20057;44.714;10.196;2022-07-23T08:52:51;98411.59;;;33.73;45.69
33727;BME280;20057;44.714;10.196;2022-07-23T08:55:20;98407.69;;;33.52;47.02
33727;BME280;20057;44.714;10.196;2022-07-23T08:57:48;98419.28;;;33.70;45.91
33727;BME280;20057;44.714;10.196;2022-07-23T09:00:16;98419.34;;;33.65;51.18
33727;BME280;20057;44.714;10.196;2022-07-23T09:02:44;98423.47;;;33.56;47.39
33727;BME280;20057;44.714;10.196;2022-07-23T09:05:12;98423.91;;;33.60;50.34
33727;BME280;20057;44.714;10.196;2022-07-23T09:10:25;98414.19;;;33.58;49.99
33727;BME280;20057;44.714;10.196;2022-07-23T09:12:53;98427.78;;;33.50;45.18
33727;BME280;20057;44.714;10.196;2022-07-23T09:15:20;98420.59;;;33.38;52.58
33727;BME280;20057;44.714;10.196;2022-07-23T09:17:47;98415.66;;;33.33;52.77
33727;BME280;20057;44.714;10.196;2022-07-23T09:20:16;98418.94;;;33.24;49.01
33727;BME280;20057;44.714;10.196;2022-07-23T09:22:44;98416.41;;;33.33;47.78
33727;BME280;20057;44.714;10.196;2022-07-23T09:25:14;98412.16;;;33.53;47.94
33727;BME280;20057;44.714;10.196;2022-07-23T09:27:45;98418.00;;;33.34;54.05
33727;BME280;20057;44.714;10.196;2022-07-23T09:30:15;98417.44;;;33.36;51.50
33727;BME280;20057;44.714;10.196;2022-07-23T09:32:42;98414.03;;;33.50;46.95
33727;BME280;20057;44.714;10.196;2022-07-23T09:35:09;98402.22;;;33.48;51.25
33727;BME280;20057;44.714;10.196;2022-07-23T09:37:37;98405.06;;;33.54;51.55
33727;BME280;20057;44.714;10.196;2022-07-23T09:40:08;98404.75;;;33.39;50.92
33727;BME280;20057;44.714;10.196;2022-07-23T09:42:36;98406.06;;;33.56;54.63
33727;BME280;20057;44.714;10.196;2022-07-23T09:45:03;98401.13;;;33.51;48.97
33727;BME280;20057;44.714;10.196;2022-07-23T09:47:31;98403.63;;;33.60;50.21
33727;BME280;20057;44.714;10.196;2022-07-23T09:49:59;98399.31;;;33.67;55.88
33727;BME280;20057;44.714;10.196;2022-07-23T09:52:34;98399.88;;;33.47;52.94
33727;BME280;20057;44.714;10.196;2022-07-23T09:55:03;98395.63;;;33.48;53.25
33727;BME280;20057;44.714;10.196;2022-07-23T09:57:31;98388.28;;;33.47;54.50
33727;BME280;20057;44.714;10.196;2022-07-23T10:00:00;98397.41;;;33.51;55.68
33727;BME280;20057;44.714;10.196;2022-07-23T10:02:31;98396.16;;;33.65;54.67
33727;BME280;20057;44.714;10.196;2022-07-23T10:05:25;98391.63;;;33.51;50.94
33727;BME280;20057;44.714;10.196;2022-07-23T10:08:08;98396.59;;;33.56;48.73
33727;BME280;20057;44.714;10.196;2022-07-23T10:10:55;98392.50;;;33.64;54.79
33727;BME280;20057;44.714;10.196;2022-07-23T10:13:47;98384.13;;;33.42;56.60
33727;BME280;20057;44.714;10.196;2022-07-23T10:16:52;98387.03;;;33.42;58.10
33727;BME280;20057;44.714;10.196;2022-07-23T10:19:20;98381.19;;;33.29;54.69
33727;BME280;20057;44.714;10.196;2022-07-23T10:21:56;98378.34;;;33.42;57.92
33727;BME280;20057;44.714;10.196;2022-07-23T10:37:12;98367.25;;;34.04;51.33
33727;BME280;20057;44.714;10.196;2022-07-23T10:39:48;98363.03;;;34.18;51.96
33727;BME280;20057;44.714;10.196;2022-07-23T10:42:15;98364.59;;;34.06;51.74
33727;BME280;20057;44.714;10.196;2022-07-23T10:44:44;98363.25;;;34.20;51.75
33727;BME280;20057;44.714;10.196;2022-07-23T10:47:29;98367.06;;;34.28;49.92
33727;BME280;20057;44.714;10.196;2022-07-23T10:57:59;98358.22;;;34.47;47.76
33727;BME280;20057;44.714;10.196;2022-07-23T11:00:28;98357.84;;;34.51;43.68
33727;BME280;20057;44.714;10.196;2022-07-23T11:02:56;98356.66;;;34.59;40.21
33727;BME280;20057;44.714;10.196;2022-07-23T11:05:41;98355.41;;;34.68;33.83
33727;BME280;20057;44.714;10.196;2022-07-23T11:08:11;98336.06;;;34.70;33.68
33727;BME280;20057;44.714;10.196;2022-07-23T11:10:40;98343.25;;;34.69;34.44
33727;BME280;20057;44.714;10.196;2022-07-23T11:31:57;98324.72;;;35.06;34.33
33727;BME280;20057;44.714;10.196;2022-07-23T11:37:02;98318.50;;;34.89;33.29
33727;BME280;20057;44.714;10.196;2022-07-23T11:39:30;98298.88;;;35.03;34.00
33727;BME280;20057;44.714;10.196;2022-07-23T11:41:58;98302.25;;;35.07;33.32
33727;BME280;20057;44.714;10.196;2022-07-23T11:44:27;98307.69;;;35.10;32.05
33727;BME280;20057;44.714;10.196;2022-07-23T11:46:57;98307.78;;;35.18;32.50
33727;BME280;20057;44.714;10.196;2022-07-23T11:49:25;98310.72;;;35.05;32.90
33727;BME280;20057;44.714;10.196;2022-07-23T11:52:06;98303.00;;;35.07;31.85
33727;BME280;20057;44.714;10.196;2022-07-23T11:54:34;98293.44;;;35.20;32.68
33727;BME280;20057;44.714;10.196;2022-07-23T11:57:06;98300.13;;;35.28;32.67
33727;BME280;20057;44.714;10.196;2022-07-23T11:59:34;98292.59;;;35.32;33.30
33727;BME280;20057;44.714;10.196;2022-07-23T12:02:05;98290.19;;;35.23;32.54
33727;BME280;20057;44.714;10.196;2022-07-23T12:04:44;98291.53;;;35.22;34.04
33727;BME280;20057;44.714;10.196;2022-07-23T12:09:51;98287.09;;;35.21;34.00
33727;BME280;20057;44.714;10.196;2022-07-23T12:12:21;98276.66;;;35.26;33.59
33727;BME280;20057;44.714;10.196;2022-07-23T12:14:54;98271.03;;;35.07;31.37
33727;BME280;20057;44.714;10.196;2022-07-23T12:17:30;98278.69;;;35.18;32.68
33727;BME280;20057;44.714;10.196;2022-07-23T12:19:59;98273.81;;;35.13;32.11
33727;BME280;20057;44.714;10.196;2022-07-23T12:22:39;98279.13;;;35.22;30.90
33727;BME280;20057;44.714;10.196;2022-07-23T12:25:10;98281.59;;;35.18;33.00
33727;BME280;20057;44.714;10.196;2022-07-23T12:27:41;98272.03;;;35.30;33.84
33727;BME280;20057;44.714;10.196;2022-07-23T12:30:16;98265.44;;;35.30;33.10
33727;BME280;20057;44.714;10.196;2022-07-23T12:32:48;98272.81;;;35.31;36.71
33727;BME280;20057;44.714;10.196;2022-07-23T12:35:18;98265.09;;;35.33;35.05
33727;BME280;20057;44.714;10.196;2022-07-23T12:37:48;98259.56;;;35.43;34.80
33727;BME280;20057;44.714;10.196;2022-07-23T12:40:23;98261.25;;;35.38;33.80
33727;BME280;20057;44.714;10.196;2022-07-23T12:43:01;98254.28;;;35.41;35.42
33727;BME280;20057;44.714;10.196;2022-07-23T12:50:51;98257.38;;;35.36;34.85
33727;BME280;20057;44.714;10.196;2022-07-23T12:53:20;98248.06;;;35.37;34.39
33727;BME280;20057;44.714;10.196;2022-07-23T12:55:48;98247.41;;;35.31;33.12
33727;BME280;20057;44.714;10.196;2022-07-23T12:58:48;98258.06;;;35.29;33.98
33727;BME280;20057;44.714;10.196;2022-07-23T13:06:27;98244.28;;;35.29;35.10
33727;BME280;20057;44.714;10.196;2022-07-23T13:08:54;98252.94;;;35.22;39.07
33727;BME280;20057;44.714;10.196;2022-07-23T13:11:22;98243.19;;;35.12;35.39
33727;BME280;20057;44.714;10.196;2022-07-23T13:13:50;98248.22;;;35.11;36.85
33727;BME280;20057;44.714;10.196;2022-07-23T13:16:17;98236.94;;;35.08;36.85
33727;BME280;20057;44.714;10.196;2022-07-23T13:18:45;98246.03;;;35.04;37.03
33727;BME280;20057;44.714;10.196;2022-07-23T13:21:12;98243.94;;;35.12;36.49
33727;BME280;20057;44.714;10.196;2022-07-23T13:23:39;98249.31;;;35.29;35.18
33727;BME280;20057;44.714;10.196;2022-07-23T13:26:06;98248.38;;;35.26;38.36
33727;BME280;20057;44.714;10.196;2022-07-23T13:28:34;98244.16;;;35.14;38.08
33727;BME280;20057;44.714;10.196;2022-07-23T13:31:01;98246.38;;;35.21;38.41
33727;BME280;20057;44.714;10.196;2022-07-23T13:33:28;98243.88;;;35.25;36.58
33727;BME280;20057;44.714;10.196;2022-07-23T13:35:55;98247.91;;;35.22;37.65
33727;BME280;20057;44.714;10.196;2022-07-23T13:38:23;98248.13;;;35.24;40.48
33727;BME280;20057;44.714;10.196;2022-07-23T13:40:51;98249.69;;;35.25;38.45
33727;BME280;20057;44.714;10.196;2022-07-23T13:43:19;98248.91;;;35.25;38.34
33727;BME280;20057;44.714;10.196;2022-07-23T13:45:47;98241.19;;;35.27;40.63
33727;BME280;20057;44.714;10.196;2022-07-23T13:48:15;98245.22;;;35.24;39.92
33727;BME280;20057;44.714;10.196;2022-07-23T13:50:42;98239.50;;;35.11;40.32
33727;BME280;20057;44.714;10.196;2022-07-23T13:53:11;98246.47;;;34.95;39.62
33727;BME280;20057;44.714;10.196;2022-07-23T13:55:39;98251.28;;;34.72;38.85
33727;BME280;20057;44.714;10.196;2022-07-23T13:58:09;98244.97;;;34.60;40.65
33727;BME280;20057;44.714;10.196;2022-07-23T14:00:41;98242.16;;;34.55;40.16
33727;BME280;20057;44.714;10.196;2022-07-23T14:03:17;98236.00;;;34.58;41.52
33727;BME280;20057;44.714;10.196;2022-07-23T14:05:45;98241.66;;;34.77;41.38
33727;BME280;20057;44.714;10.196;2022-07-23T14:08:12;98236.69;;;34.85;39.72
33727;BME280;20057;44.714;10.196;2022-07-23T14:10:40;98245.38;;;34.85;38.44
33727;BME280;20057;44.714;10.196;2022-07-23T14:13:07;98235.06;;;34.97;36.58
33727;BME280;20057;44.714;10.196;2022-07-23T14:15:34;98243.94;;;34.91;37.83
33727;BME280;20057;44.714;10.196;2022-07-23T14:18:01;98234.22;;;34.89;36.39
33727;BME280;20057;44.714;10.196;2022-07-23T14:20:29;98228.88;;;34.80;37.20
33727;BME280;20057;44.714;10.196;2022-07-23T14:22:56;98237.91;;;34.56;37.39
33727;BME280;20057;44.714;10.196;2022-07-23T14:25:24;98243.06;;;34.36;37.87
33727;BME280;20057;44.714;10.196;2022-07-23T14:27:52;98231.38;;;34.29;37.51
33727;BME280;20057;44.714;10.196;2022-07-23T14:30:20;98239.06;;;34.26;36.72
33727;BME280;20057;44.714;10.196;2022-07-23T14:32:47;98235.53;;;34.20;37.89
33727;BME280;20057;44.714;10.196;2022-07-23T14:35:14;98243.56;;;34.27;37.83
33727;BME280;20057;44.714;10.196;2022-07-23T14:37:41;98232.66;;;34.41;40.27
33727;BME280;20057;44.714;10.196;2022-07-23T14:40:09;98231.06;;;34.53;39.04
33727;BME280;20057;44.714;10.196;2022-07-23T14:42:36;98230.06;;;34.51;37.60
33727;BME280;20057;44.714;10.196;2022-07-23T14:45:03;98230.56;;;34.55;36.13
33727;BME280;20057;44.714;10.196;2022-07-23T14:47:32;98227.66;;;34.42;35.60
33727;BME280;20057;44.714;10.196;2022-07-23T14:49:59;98231.91;;;34.41;35.75
33727;BME280;20057;44.714;10.196;2022-07-23T14:52:26;98230.34;;;34.40;36.87
33727;BME280;20057;44.714;10.196;2022-07-23T14:54:53;98225.22;;;34.32;39.01
33727;BME280;20057;44.714;10.196;2022-07-23T14:57:21;98225.16;;;34.46;36.80
33727;BME280;20057;44.714;10.196;2022-07-23T14:59:52;98223.19;;;34.41;37.10
33727;BME280;20057;44.714;10.196;2022-07-23T15:02:20;98218.53;;;34.24;36.85
33727;BME280;20057;44.714;10.196;2022-07-23T15:04:47;98225.16;;;34.12;36.43
33727;BME280;20057;44.714;10.196;2022-07-23T15:07:14;98218.25;;;33.89;37.53
33727;BME280;20057;44.714;10.196;2022-07-23T15:09:42;98230.97;;;33.86;37.11
33727;BME280;20057;44.714;10.196;2022-07-23T15:12:09;98217.91;;;33.79;36.29
33727;BME280;20057;44.714;10.196;2022-07-23T15:14:36;98224.31;;;33.46;37.40
33727;BME280;20057;44.714;10.196;2022-07-23T15:17:03;98222.31;;;33.41;37.17
33727;BME280;20057;44.714;10.196;2022-07-23T15:19:30;98228.31;;;33.30;36.47
33727;BME280;20057;44.714;10.196;2022-07-23T15:21:58;98230.88;;;33.20;36.31
33727;BME280;20057;44.714;10.196;2022-07-23T15:24:26;98228.41;;;33.11;37.75
33727;BME280;20057;44.714;10.196;2022-07-23T15:26:53;98233.97;;;33.09;37.23
33727;BME280;20057;44.714;10.196;2022-07-23T15:29:20;98228.94;;;33.09;38.00
33727;BME280;20057;44.714;10.196;2022-07-23T15:31:48;98224.09;;;32.99;37.70
33727;BME280;20057;44.714;10.196;2022-07-23T15:34:17;98220.59;;;32.87;38.45
33727;BME280;20057;44.714;10.196;2022-07-23T15:36:44;98231.97;;;32.85;38.61
33727;BME280;20057;44.714;10.196;2022-07-23T15:39:12;98227.19;;;32.88;38.32
33727;BME280;20057;44.714;10.196;2022-07-23T15:41:40;98221.69;;;32.84;37.79
33727;BME280;20057;44.714;10.196;2022-07-23T15:44:07;98228.06;;;32.83;38.50
33727;BME280;20057;44.714;10.196;2022-07-23T15:46:34;98231.25;;;32.79;39.20
33727;BME280;20057;44.714;10.196;2022-07-23T15:49:02;98216.88;;;32.74;38.88
33727;BME280;20057;44.714;10.196;2022-07-23T15:51:29;98227.25;;;32.69;38.65
33727;BME280;20057;44.714;10.196;2022-07-23T15:53:58;98223.78;;;32.71;38.82
33727;BME280;20057;44.714;10.196;2022-07-23T15:56:25;98225.09;;;32.70;38.84
33727;BME280;20057;44.714;10.196;2022-07-23T15:58:52;98230.44;;;32.66;39.20
33727;BME280;20057;44.714;10.196;2022-07-23T16:01:20;98217.53;;;32.67;39.15
33727;BME280;20057;44.714;10.196;2022-07-23T16:03:47;98220.50;;;32.61;39.28
33727;BME280;20057;44.714;10.196;2022-07-23T16:06:15;98215.19;;;32.65;39.79
33727;BME280;20057;44.714;10.196;2022-07-23T16:08:42;98222.84;;;32.63;40.00
33727;BME280;20057;44.714;10.196;2022-07-23T16:11:09;98198.28;;;32.69;39.56
33727;BME280;20057;44.714;10.196;2022-07-23T16:13:37;98204.28;;;32.71;40.03
33727;BME280;20057;44.714;10.196;2022-07-23T16:16:04;98203.09;;;32.80;39.61
33727;BME280;20057;44.714;10.196;2022-07-23T16:18:32;98204.66;;;32.81;39.50
33727;BME280;20057;44.714;10.196;2022-07-23T16:20:59;98207.22;;;32.84;37.51
33727;BME280;20057;44.714;10.196;2022-07-23T16:23:30;98199.09;;;32.83;39.73
33727;BME280;20057;44.714;10.196;2022-07-23T16:25:59;98200.97;;;32.80;38.27
33727;BME280;20057;44.714;10.196;2022-07-23T16:28:27;98210.75;;;32.77;38.77
33727;BME280;20057;44.714;10.196;2022-07-23T16:30:54;98204.16;;;32.64;38.95
33727;BME280;20057;44.714;10.196;2022-07-23T16:33:21;98210.09;;;32.53;38.26
33727;BME280;20057;44.714;10.196;2022-07-23T16:35:48;98205.88;;;32.54;37.15
33727;BME280;20057;44.714;10.196;2022-07-23T16:38:16;98205.47;;;32.44;38.22
33727;BME280;20057;44.714;10.196;2022-07-23T16:40:43;98205.63;;;32.33;36.86
33727;BME280;20057;44.714;10.196;2022-07-23T16:43:10;98210.88;;;32.34;36.00
33727;BME280;20057;44.714;10.196;2022-07-23T16:45:37;98206.41;;;32.33;35.87
33727;BME280;20057;44.714;10.196;2022-07-23T16:48:06;98201.59;;;32.23;35.57
33727;BME280;20057;44.714;10.196;2022-07-23T16:50:33;98201.34;;;32.21;35.60
33727;BME280;20057;44.714;10.196;2022-07-23T16:53:00;98197.19;;;32.16;35.05
33727;BME280;20057;44.714;10.196;2022-07-23T16:55:28;98197.53;;;32.13;35.32
33727;BME280;20057;44.714;10.196;2022-07-23T16:57:55;98198.28;;;32.13;36.02
33727;BME280;20057;44.714;10.196;2022-07-23T17:00:22;98187.03;;;32.10;36.92
33727;BME280;20057;44.714;10.196;2022-07-23T17:02:49;98190.50;;;32.08;37.82
33727;BME280;20057;44.714;10.196;2022-07-23T17:05:17;98202.44;;;31.99;37.37
33727;BME280;20057;44.714;10.196;2022-07-23T17:07:44;98196.16;;;31.95;38.28
33727;BME280;20057;44.714;10.196;2022-07-23T17:10:11;98181.53;;;31.88;38.73
33727;BME280;20057;44.714;10.196;2022-07-23T17:12:38;98192.63;;;31.83;38.14
33727;BME280;20057;44.714;10.196;2022-07-23T17:15:06;98187.06;;;31.86;38.84
33727;BME280;20057;44.714;10.196;2022-07-23T17:17:34;98180.56;;;31.79;38.60
33727;BME280;20057;44.714;10.196;2022-07-23T17:20:03;98194.00;;;31.77;38.63
33727;BME280;20057;44.714;10.196;2022-07-23T17:22:30;98188.91;;;31.64;40.26
33727;BME280;20057;44.714;10.196;2022-07-23T17:24:58;98197.09;;;31.60;40.08
33727;BME280;20057;44.714;10.196;2022-07-23T17:27:25;98199.13;;;31.47;40.74
33727;BME280;20057;44.714;10.196;2022-07-23T17:29:53;98196.00;;;31.45;41.60
33727;BME280;20057;44.714;10.196;2022-07-23T17:32:20;98194.69;;;31.40;41.49
33727;BME280;20057;44.714;10.196;2022-07-23T17:34:47;98195.38;;;31.28;42.68
33727;BME280;20057;44.714;10.196;2022-07-23T17:37:14;98193.31;;;31.23;41.83
33727;BME280;20057;44.714;10.196;2022-07-23T17:39:43;98201.53;;;31.13;42.76
33727;BME280;20057;44.714;10.196;2022-07-23T17:42:10;98196.00;;;30.91;43.65
33727;BME280;20057;44.714;10.196;2022-07-23T17:44:37;98194.94;;;30.88;42.71
33727;BME280;20057;44.714;10.196;2022-07-23T17:47:04;98190.50;;;30.82;40.93
33727;BME280;20057;44.714;10.196;2022-07-23T17:49:32;98198.69;;;30.78;43.24
33727;BME280;20057;44.714;10.196;2022-07-23T17:52:02;98188.78;;;30.68;42.34
33727;BME280;20057;44.714;10.196;2022-07-23T17:54:30;98192.25;;;30.61;40.27
33727;BME280;20057;44.714;10.196;2022-07-23T17:56:58;98194.91;;;30.59;40.51
33727;BME280;20057;44.714;10.196;2022-07-23T17:59:28;98190.75;;;30.54;40.62
33727;BME280;20057;44.714;10.196;2022-07-23T18:01:55;98194.97;;;30.47;39.44
33727;BME280;20057;44.714;10.196;2022-07-23T18:04:22;98193.94;;;30.45;40.16
33727;BME280;20057;44.714;10.196;2022-07-23T18:06:49;98197.72;;;30.34;40.01
33727;BME280;20057;44.714;10.196;2022-07-23T18:09:18;98201.63;;;30.31;40.83
33727;BME280;20057;44.714;10.196;2022-07-23T18:11:45;98198.50;;;30.29;40.13
33727;BME280;20057;44.714;10.196;2022-07-23T18:14:13;98201.09;;;30.33;39.22
33727;BME280;20057;44.714;10.196;2022-07-23T18:16:40;98208.72;;;30.30;40.54
33727;BME280;20057;44.714;10.196;2022-07-23T18:19:07;98209.81;;;30.22;40.91
33727;BME280;20057;44.714;10.196;2022-07-23T18:21:35;98204.06;;;30.22;42.09
33727;BME280;20057;44.714;10.196;2022-07-23T18:24:02;98207.22;;;30.18;42.54
33727;BME280;20057;44.714;10.196;2022-07-23T18:26:29;98203.84;;;30.09;43.15
33727;BME280;20057;44.714;10.196;2022-07-23T18:28:57;98216.44;;;30.06;42.74
33727;BME280;20057;44.714;10.196;2022-07-23T18:31:24;98214.91;;;29.99;42.94
33727;BME280;20057;44.714;10.196;2022-07-23T18:33:51;98220.94;;;30.01;42.65
33727;BME280;20057;44.714;10.196;2022-07-23T18:36:18;98223.56;;;29.99;44.03
33727;BME280;20057;44.714;10.196;2022-07-23T18:38:46;98226.94;;;30.03;42.58
33727;BME280;20057;44.714;10.196;2022-07-23T18:41:14;98221.47;;;30.00;43.36
33727;BME280;20057;44.714;10.196;2022-07-23T18:43:41;98222.31;;;29.89;43.64
33727;BME280;20057;44.714;10.196;2022-07-23T18:46:09;98233.03;;;29.88;44.07
33727;BME280;20057;44.714;10.196;2022-07-23T18:48:36;98226.28;;;29.80;44.26
33727;BME280;20057;44.714;10.196;2022-07-23T18:51:03;98230.22;;;29.77;44.28
33727;BME280;20057;44.714;10.196;2022-07-23T18:53:30;98225.78;;;29.71;45.47
33727;BME280;20057;44.714;10.196;2022-07-23T18:55:58;98222.91;;;29.60;46.19
33727;BME280;20057;44.714;10.196;2022-07-23T18:58:25;98233.69;;;29.54;46.77
33727;BME280;20057;44.714;10.196;2022-07-23T19:00:52;98238.41;;;29.46;46.50
33727;BME280;20057;44.714;10.196;2022-07-23T19:03:20;98242.88;;;29.41;47.08
33727;BME280;20057;44.714;10.196;2022-07-23T19:05:47;98233.72;;;29.37;47.95
33727;BME280;20057;44.714;10.196;2022-07-23T19:08:14;98240.28;;;29.26;48.86
33727;BME280;20057;44.714;10.196;2022-07-23T19:10:42;98241.88;;;29.22;47.91
33727;BME280;20057;44.714;10.196;2022-07-23T19:13:09;98243.94;;;29.16;49.05
33727;BME280;20057;44.714;10.196;2022-07-23T19:15:36;98244.72;;;29.11;49.44
33727;BME280;20057;44.714;10.196;2022-07-23T19:18:03;98249.44;;;29.08;49.61
33727;BME280;20057;44.714;10.196;2022-07-23T19:20:31;98259.91;;;29.06;49.95
33727;BME280;20057;44.714;10.196;2022-07-23T19:22:58;98255.47;;;28.99;49.90
33727;BME280;20057;44.714;10.196;2022-07-23T19:25:25;98258.06;;;29.03;49.58